createdAt,value
2019-03-05T00:01:06.424Z,0.40
2019-03-05T00:03:34.860Z,0.45
2019-03-05T00:06:03.332Z,0.27
2019-03-05T00:08:31.765Z,0.50
2019-03-05T00:11:00.183Z,0.30
2019-03-05T00:13:28.696Z,0.37
2019-03-05T00:15:57.094Z,0.40
2019-03-05T00:18:25.762Z,0.30
2019-03-05T00:20:54.192Z,0.47
2019-03-05T00:23:42.151Z,0.37
2019-03-05T00:26:10.592Z,0.47
2019-03-05T00:28:51.175Z,0.30
2019-03-05T00:31:25.310Z,0.30
2019-03-05T00:34:02.722Z,0.37
2019-03-05T00:36:37.140Z,0.40
2019-03-05T00:39:30.724Z,0.50
2019-03-05T00:42:11.268Z,0.50
2019-03-05T00:45:14.900Z,0.47
2019-03-05T00:48:17.023Z,0.50
2019-03-05T00:51:24.991Z,0.57
2019-03-05T00:54:25.346Z,0.40
2019-03-05T00:56:59.736Z,0.30
2019-03-05T00:59:34.013Z,0.20
2019-03-05T01:02:34.390Z,0.40
2019-03-05T01:05:17.989Z,0.40
2019-03-05T01:07:46.408Z,0.40
2019-03-05T01:10:16.529Z,0.30
2019-03-05T01:12:45.205Z,0.30
2019-03-05T01:15:13.981Z,0.60
2019-03-05T01:17:42.399Z,0.30
2019-03-05T01:20:12.169Z,0.50
2019-03-05T01:22:40.579Z,0.40
2019-03-05T01:25:28.516Z,0.40
2019-03-05T01:27:56.981Z,0.50
2019-03-05T01:30:41.371Z,0.40
2019-03-05T01:33:11.435Z,0.37
2019-03-05T01:35:41.564Z,0.42
2019-03-05T01:38:10.057Z,0.30
2019-03-05T01:40:39.110Z,0.40
2019-03-05T01:43:07.523Z,0.37
2019-03-05T01:45:35.946Z,0.30
2019-03-05T01:48:04.351Z,0.57
2019-03-05T01:50:32.813Z,0.40
2019-03-05T01:53:01.211Z,0.40
2019-03-05T01:55:29.669Z,0.60
2019-03-05T01:57:58.247Z,0.50
2019-03-05T02:00:26.925Z,0.30
2019-03-05T02:02:55.344Z,0.50
2019-03-05T02:05:23.935Z,0.40
2019-03-05T02:07:52.908Z,0.50
2019-03-05T02:10:22.619Z,0.30
2019-03-05T02:12:51.052Z,0.40
2019-03-05T02:15:19.526Z,0.40
2019-03-05T02:17:48.034Z,0.40
2019-03-05T02:20:24.626Z,0.57
2019-03-05T02:22:58.855Z,0.40
2019-03-05T02:25:33.088Z,0.40
2019-03-05T02:28:27.103Z,0.40
2019-03-05T02:31:07.847Z,0.40
2019-03-05T02:34:03.452Z,0.50
2019-03-05T02:36:51.142Z,0.40
2019-03-05T02:39:37.619Z,0.43
2019-03-05T02:42:09.106Z,0.40
2019-03-05T02:45:03.448Z,0.40
2019-03-05T02:47:40.143Z,0.50
2019-03-05T02:50:33.007Z,0.40
2019-03-05T02:53:38.025Z,0.30
2019-03-05T02:56:18.570Z,0.40
2019-03-05T02:58:45.929Z,0.40
2019-03-05T03:01:32.228Z,0.50
2019-03-05T03:04:02.295Z,0.40
2019-03-05T03:06:31.304Z,0.37
2019-03-05T03:09:25.231Z,0.40
2019-03-05T03:11:53.645Z,0.40
2019-03-05T03:14:22.068Z,0.47
2019-03-05T03:16:50.504Z,0.70
2019-03-05T03:19:18.967Z,0.47
2019-03-05T03:21:47.406Z,0.43
2019-03-05T03:24:15.814Z,0.40
2019-03-05T03:26:44.235Z,0.40
2019-03-05T03:29:12.652Z,0.43
2019-03-05T03:31:41.068Z,0.40
2019-03-05T03:34:09.501Z,0.40
2019-03-05T03:36:37.892Z,0.40
2019-03-05T03:39:06.762Z,0.57
2019-03-05T03:41:35.187Z,0.57
2019-03-05T03:44:03.619Z,0.33
2019-03-05T03:46:32.021Z,0.50
2019-03-05T03:49:00.459Z,0.30
2019-03-05T03:51:28.857Z,0.30
2019-03-05T03:53:57.286Z,0.35
2019-03-05T03:56:25.726Z,0.40
2019-03-05T03:58:54.123Z,0.30
2019-03-05T04:01:22.611Z,0.40
2019-03-05T04:03:51.009Z,0.67
2019-03-05T04:06:19.440Z,0.37
2019-03-05T04:08:47.842Z,0.30
2019-03-05T04:11:16.253Z,0.30
2019-03-05T04:13:44.664Z,0.40
2019-03-05T04:16:13.090Z,0.40
2019-03-05T04:18:41.492Z,0.30
2019-03-05T04:21:09.933Z,0.57
2019-03-05T04:23:38.403Z,0.47
2019-03-05T04:26:06.841Z,0.40
2019-03-05T04:28:35.273Z,0.50
2019-03-05T04:31:03.695Z,0.60
2019-03-05T04:33:32.103Z,0.35
2019-03-05T04:36:00.528Z,0.33
2019-03-05T04:38:28.984Z,0.73
2019-03-05T04:40:57.394Z,0.30
2019-03-05T04:43:25.819Z,0.50
2019-03-05T04:46:01.576Z,0.33
2019-03-05T04:48:30.009Z,0.40
2019-03-05T04:51:00.134Z,0.40
2019-03-05T04:53:28.552Z,0.53
2019-03-05T04:55:56.981Z,0.50
2019-03-05T04:58:25.426Z,0.43
2019-03-05T05:00:53.824Z,0.20
2019-03-05T05:03:22.259Z,0.30
2019-03-05T05:05:50.652Z,0.50
2019-03-05T05:08:19.088Z,0.50
2019-03-05T05:10:47.474Z,0.30
2019-03-05T05:13:15.972Z,0.50
2019-03-05T05:15:44.401Z,0.30
2019-03-05T05:18:12.880Z,1.00
2019-03-05T05:20:41.304Z,0.53
2019-03-05T05:23:09.750Z,0.40
2019-03-05T05:25:38.188Z,0.40
2019-03-05T05:28:06.596Z,0.70
2019-03-05T05:30:39.942Z,0.20
2019-03-05T05:33:09.178Z,0.30
2019-03-05T05:35:37.839Z,0.40
2019-03-05T05:38:06.318Z,0.57
2019-03-05T05:40:36.694Z,0.30
2019-03-05T05:43:07.258Z,0.43
2019-03-05T05:45:44.475Z,0.60
2019-03-05T05:48:12.974Z,0.43
2019-03-05T05:50:41.419Z,0.33
2019-03-05T05:53:09.922Z,0.60
2019-03-05T05:55:38.316Z,0.50
2019-03-05T05:58:06.715Z,0.70
2019-03-05T06:00:36.789Z,0.60
2019-03-05T06:03:05.282Z,0.50
2019-03-05T06:05:33.703Z,0.43
2019-03-05T06:08:02.132Z,0.47
2019-03-05T06:10:30.578Z,0.53
2019-03-05T06:12:58.999Z,0.53
2019-03-05T06:15:27.404Z,0.50
2019-03-05T06:17:55.830Z,0.47
2019-03-05T06:20:24.235Z,0.37
2019-03-05T06:22:52.674Z,0.40
2019-03-05T06:25:21.103Z,0.60
2019-03-05T06:27:49.528Z,0.40
2019-03-05T06:30:20.122Z,0.63
2019-03-05T06:32:48.549Z,0.50
2019-03-05T06:35:17.059Z,0.40
2019-03-05T06:37:45.486Z,0.50
2019-03-05T06:40:16.693Z,0.30
2019-03-05T06:42:45.200Z,0.50
2019-03-05T06:45:18.248Z,0.70
2019-03-05T06:47:46.692Z,0.70
2019-03-05T06:50:22.112Z,0.60
2019-03-05T06:52:51.101Z,0.50
2019-03-05T06:55:19.519Z,0.67
2019-03-05T06:57:47.939Z,0.50
2019-03-05T07:00:40.710Z,0.57
2019-03-05T07:03:10.277Z,0.43
2019-03-05T07:06:14.932Z,0.40
2019-03-05T07:08:49.282Z,0.50
2019-03-05T07:11:29.336Z,0.60
2019-03-05T07:14:03.659Z,0.63
2019-03-05T07:16:37.689Z,0.60
2019-03-05T07:19:06.631Z,0.30
2019-03-05T07:21:49.980Z,0.47
2019-03-05T07:24:42.560Z,0.73
2019-03-05T07:27:11.324Z,0.40
2019-03-05T07:29:39.799Z,0.40
2019-03-05T07:32:08.236Z,0.30
2019-03-05T07:34:38.295Z,0.70
2019-03-05T07:37:09.266Z,0.50
2019-03-05T07:39:37.684Z,0.43
2019-03-05T07:42:06.191Z,0.40
2019-03-05T07:44:34.612Z,0.50
2019-03-05T07:47:03.014Z,0.60
2019-03-05T07:49:42.963Z,0.30
2019-03-05T07:52:01.571Z,0.30
2019-03-05T07:54:30.010Z,0.47
2019-03-05T07:56:58.447Z,0.47
2019-03-05T07:59:26.879Z,0.40
2019-03-05T08:01:55.297Z,0.60
2019-03-05T08:04:23.721Z,0.70
2019-03-05T08:06:52.133Z,0.40
2019-03-05T08:09:33.579Z,0.67
2019-03-05T08:12:25.080Z,0.50
2019-03-05T08:15:02.362Z,0.30
2019-03-05T08:17:30.832Z,0.65
2019-03-05T08:19:59.327Z,0.73
2019-03-05T08:22:27.727Z,0.50
2019-03-05T08:24:56.231Z,0.37
2019-03-05T08:27:24.629Z,0.47
2019-03-05T08:29:53.060Z,0.30
2019-03-05T08:32:21.481Z,0.50
2019-03-05T08:34:49.899Z,0.50
2019-03-05T08:37:18.300Z,0.53
2019-03-05T08:39:46.798Z,0.40
2019-03-05T08:42:15.199Z,0.93
2019-03-05T08:44:50.309Z,0.40
2019-03-05T08:47:13.803Z,0.50
2019-03-05T08:49:42.291Z,0.73
2019-03-05T08:52:10.745Z,0.55
2019-03-05T08:54:39.159Z,0.70
2019-03-05T08:57:07.578Z,0.40
2019-03-05T08:59:36.018Z,0.55
2019-03-05T09:02:04.512Z,0.60
2019-03-05T09:04:32.929Z,0.47
2019-03-05T09:07:01.391Z,0.80
2019-03-05T09:09:29.951Z,0.40
2019-03-05T09:11:58.654Z,0.63
2019-03-05T09:14:27.062Z,0.53
2019-03-05T09:16:55.513Z,0.50
2019-03-05T09:19:23.937Z,0.53
2019-03-05T09:21:52.376Z,0.70
2019-03-05T09:24:20.769Z,0.60
2019-03-05T09:26:51.417Z,0.50
2019-03-05T09:29:20.607Z,0.60
2019-03-05T09:31:49.037Z,0.63
2019-03-05T09:34:17.491Z,0.50
2019-03-05T09:36:50.945Z,0.57
2019-03-05T09:39:16.389Z,0.60
2019-03-05T09:41:44.961Z,0.63
2019-03-05T09:44:13.375Z,0.53
2019-03-05T09:46:41.786Z,0.40
2019-03-05T09:49:10.314Z,0.40
2019-03-05T09:51:38.703Z,0.50
2019-03-05T09:54:07.173Z,0.53
2019-03-05T09:56:35.609Z,0.40
2019-03-05T09:59:05.659Z,0.47
2019-03-05T10:01:34.153Z,0.40
2019-03-05T10:04:02.727Z,0.57
2019-03-05T10:06:31.197Z,0.62
2019-03-05T10:08:59.583Z,0.55
2019-03-05T10:11:28.027Z,0.30
2019-03-05T10:13:56.438Z,0.70
2019-03-05T10:16:24.846Z,0.65
2019-03-05T10:18:53.283Z,0.43
2019-03-05T10:21:21.707Z,0.60
2019-03-05T10:23:50.299Z,0.50
2019-03-05T10:26:18.917Z,0.85
2019-03-05T10:28:47.426Z,0.60
2019-03-05T10:31:18.502Z,0.50
2019-03-05T10:33:46.222Z,0.60
2019-03-05T10:36:14.691Z,0.37
2019-03-05T10:38:43.125Z,0.43
2019-03-05T10:41:11.718Z,0.63
2019-03-05T10:43:40.126Z,0.70
2019-03-05T10:46:08.615Z,0.60
2019-03-05T10:48:37.035Z,0.30
2019-03-05T10:51:05.960Z,0.65
2019-03-05T10:53:34.467Z,0.80
2019-03-05T10:56:02.954Z,0.50
2019-03-05T10:58:34.186Z,0.57
2019-03-05T11:01:01.992Z,0.80
2019-03-05T11:03:31.056Z,0.73
2019-03-05T11:05:59.916Z,0.57
2019-03-05T11:08:28.616Z,0.33
2019-03-05T11:10:57.471Z,0.40
2019-03-05T11:13:25.976Z,0.57
2019-03-05T11:16:02.395Z,0.45
2019-03-05T11:18:30.831Z,0.40
2019-03-05T11:20:59.586Z,0.37
2019-03-05T11:23:28.006Z,0.50
2019-03-05T11:25:56.422Z,0.53
2019-03-05T11:28:24.886Z,0.70
2019-03-05T11:30:53.462Z,0.67
2019-03-05T11:33:22.240Z,0.70
2019-03-05T11:35:50.840Z,0.53
2019-03-05T11:38:19.960Z,0.70
2019-03-05T11:40:48.500Z,0.70
2019-03-05T11:43:17.871Z,0.37
2019-03-05T11:45:46.520Z,0.90
2019-03-05T11:48:16.006Z,0.40
2019-03-05T11:50:44.974Z,0.60
2019-03-05T11:53:13.518Z,0.70
2019-03-05T11:55:42.121Z,0.47
2019-03-05T11:58:10.588Z,0.60
2019-03-05T12:00:41.005Z,0.60
2019-03-05T12:03:09.477Z,0.45
2019-03-05T12:05:37.905Z,0.55
2019-03-05T12:08:06.376Z,0.82
2019-03-05T12:10:35.071Z,0.65
2019-03-05T12:13:03.835Z,0.53
2019-03-05T12:15:44.110Z,0.60
2019-03-05T12:18:12.642Z,0.40
2019-03-05T12:20:41.193Z,0.53
2019-03-05T12:23:10.355Z,0.60
2019-03-05T12:25:41.074Z,0.55
2019-03-05T12:28:10.995Z,0.40
2019-03-05T12:30:40.143Z,0.55
2019-03-05T12:33:08.719Z,0.60
2019-03-05T12:35:37.212Z,0.78
2019-03-05T12:38:06.065Z,0.45
2019-03-05T12:40:34.480Z,0.55
2019-03-05T12:43:02.990Z,0.40
2019-03-05T12:45:31.419Z,0.40
2019-03-05T12:47:59.830Z,0.68
2019-03-05T12:50:30.108Z,0.57
2019-03-05T12:52:58.803Z,0.40
2019-03-05T12:55:27.491Z,0.60
2019-03-05T12:57:56.004Z,0.50
2019-03-05T13:00:35.066Z,0.40
2019-03-05T13:03:04.160Z,0.60
2019-03-05T13:05:32.656Z,0.62
2019-03-05T13:08:01.091Z,0.75
2019-03-05T13:10:34.939Z,0.45
2019-03-05T13:13:01.230Z,0.40
2019-03-05T13:15:38.814Z,0.78
2019-03-05T13:18:07.319Z,0.40
2019-03-05T13:20:35.762Z,0.60
2019-03-05T13:23:08.849Z,0.40
2019-03-05T13:25:34.584Z,0.40
2019-03-05T13:28:04.212Z,0.70
2019-03-05T13:30:33.225Z,0.30
2019-03-05T13:33:01.833Z,0.50
2019-03-05T13:35:32.028Z,0.60
2019-03-05T13:38:03.224Z,0.62
2019-03-05T13:40:34.029Z,0.50
2019-03-05T13:43:03.107Z,0.50
2019-03-05T13:45:31.611Z,0.50
2019-03-05T13:48:19.650Z,0.40
2019-03-05T13:51:19.431Z,0.50
2019-03-05T13:54:05.715Z,0.57
2019-03-05T13:56:42.206Z,0.35
2019-03-05T13:59:37.522Z,0.90
2019-03-05T14:02:07.704Z,0.70
2019-03-05T14:05:00.464Z,0.40
2019-03-05T14:08:00.698Z,0.30
2019-03-05T14:10:29.116Z,0.78
2019-03-05T14:12:57.561Z,0.45
2019-03-05T14:15:26.107Z,0.50
2019-03-05T14:17:54.524Z,0.50
2019-03-05T14:20:31.607Z,0.50
2019-03-05T14:22:53.092Z,0.42
2019-03-05T14:25:21.546Z,0.60
2019-03-05T14:27:49.945Z,0.60
2019-03-05T14:30:21.144Z,0.40
2019-03-05T14:32:50.182Z,0.40
2019-03-05T14:35:19.654Z,0.60
2019-03-05T14:37:48.499Z,0.57
2019-03-05T14:40:24.749Z,0.40
2019-03-05T14:42:53.250Z,19.07
2019-03-05T14:45:27.638Z,32.23
2019-03-05T14:47:57.833Z,31.35
2019-03-05T14:50:26.253Z,86.90
2019-03-05T14:52:54.685Z,84.65
2019-03-05T14:55:23.343Z,34.48
2019-03-05T14:57:51.985Z,37.65
2019-03-05T15:00:21.640Z,33.78
2019-03-05T15:02:50.202Z,19.98
2019-03-05T15:05:18.765Z,9.55
2019-03-05T15:07:47.166Z,7.80
2019-03-05T15:10:15.699Z,5.97
2019-03-05T15:12:44.144Z,5.15
2019-03-05T15:15:15.581Z,3.67
2019-03-05T15:17:43.983Z,2.00
2019-03-05T15:20:12.617Z,1.50
2019-03-05T15:22:41.012Z,17.25
2019-03-05T15:25:12.074Z,19.55
2019-03-05T15:27:40.486Z,11.50
2019-03-05T15:30:14.769Z,17.12
2019-03-05T15:32:43.238Z,6.62
2019-03-05T15:35:12.768Z,3.35
2019-03-05T15:37:41.235Z,2.40
2019-03-05T15:40:15.276Z,2.10
2019-03-05T15:42:43.793Z,1.87
2019-03-05T15:45:22.837Z,2.10
2019-03-05T15:47:51.272Z,1.80
2019-03-05T15:50:30.014Z,1.47
2019-03-05T15:52:58.423Z,1.43
2019-03-05T15:55:27.307Z,0.63
2019-03-05T15:57:55.735Z,98.90
2019-03-05T16:00:30.484Z,405.98
2019-03-05T16:02:59.549Z,100.13
2019-03-05T16:05:28.820Z,56.23
2019-03-05T16:07:57.241Z,47.48
2019-03-05T16:10:25.701Z,36.93
2019-03-05T16:12:54.100Z,28.30
2019-03-05T16:15:22.637Z,24.85
2019-03-05T16:17:51.137Z,20.77
2019-03-05T16:20:21.159Z,15.58
2019-03-05T16:22:51.215Z,14.43
2019-03-05T16:25:22.274Z,14.33
2019-03-05T16:27:50.757Z,13.18
2019-03-05T16:30:42.768Z,11.63
2019-03-05T16:33:15.900Z,10.73
2019-03-05T16:36:02.405Z,9.53
2019-03-05T16:38:44.449Z,7.20
2019-03-05T16:41:23.377Z,7.47
2019-03-05T16:44:09.857Z,6.58
2019-03-05T16:46:42.623Z,5.40
2019-03-05T16:49:18.789Z,4.93
2019-03-05T16:52:05.486Z,3.60
2019-03-05T16:54:41.444Z,3.23
2019-03-05T16:57:11.524Z,3.50
2019-03-05T16:59:44.108Z,3.55
2019-03-05T17:02:29.783Z,3.77
2019-03-05T17:05:08.807Z,3.30
2019-03-05T17:07:41.807Z,2.90
2019-03-05T17:10:13.411Z,2.70
2019-03-05T17:12:42.017Z,2.77
2019-03-05T17:15:11.187Z,2.77
2019-03-05T17:17:39.631Z,3.00
2019-03-05T17:20:10.923Z,4.70
2019-03-05T17:22:39.330Z,2.80
2019-03-05T17:25:13.614Z,3.27
2019-03-05T17:27:42.050Z,3.13
2019-03-05T17:30:13.566Z,2.80
2019-03-05T17:32:41.967Z,2.50
2019-03-05T17:35:11.362Z,3.47
2019-03-05T17:37:39.917Z,2.93
2019-03-05T17:40:13.305Z,2.62
2019-03-05T17:42:41.985Z,3.07
2019-03-05T17:45:21.768Z,2.00
2019-03-05T17:47:53.817Z,2.20
2019-03-05T17:50:22.259Z,2.40
2019-03-05T17:52:50.714Z,3.37
2019-03-05T17:55:24.659Z,2.77
2019-03-05T17:57:51.915Z,2.33
2019-03-05T18:00:23.215Z,2.77
2019-03-05T18:02:51.732Z,2.43
2019-03-05T18:05:20.142Z,2.13
2019-03-05T18:07:48.582Z,2.27
2019-03-05T18:10:17.440Z,2.17
2019-03-05T18:12:45.877Z,5.50
2019-03-05T18:15:17.680Z,12.23
2019-03-05T18:17:46.122Z,56.13
2019-03-05T18:20:17.658Z,51.33
2019-03-05T18:22:46.366Z,60.13
2019-03-05T18:25:16.122Z,52.27
2019-03-05T18:27:44.749Z,34.63
2019-03-05T18:30:22.109Z,29.37
2019-03-05T18:32:50.624Z,25.23
2019-03-05T18:35:20.087Z,24.50
2019-03-05T18:37:48.552Z,21.83
2019-03-05T18:40:21.347Z,21.43
2019-03-05T18:42:50.090Z,99.50
2019-03-05T18:45:33.693Z,85.33
2019-03-05T18:48:02.196Z,116.90
2019-03-05T18:50:30.692Z,171.97
2019-03-05T18:53:00.673Z,153.93
2019-03-05T18:55:29.570Z,136.57
2019-03-05T18:57:58.094Z,88.07
2019-03-05T19:00:28.444Z,73.03
2019-03-05T19:03:14.969Z,61.37
2019-03-05T19:05:43.469Z,46.40
2019-03-05T19:08:11.980Z,33.93
2019-03-05T19:10:40.646Z,31.80
2019-03-05T19:13:09.162Z,26.87
2019-03-05T19:15:37.761Z,20.30
2019-03-05T19:18:07.359Z,19.10
2019-03-05T19:20:35.786Z,28.50
2019-03-05T19:23:04.322Z,22.87
2019-03-05T19:25:35.098Z,23.37
2019-03-05T19:28:03.624Z,19.73
2019-03-05T19:30:40.201Z,16.60
2019-03-05T19:33:08.660Z,13.97
2019-03-05T19:35:37.088Z,14.50
2019-03-05T19:38:05.772Z,9.13
2019-03-05T19:40:36.990Z,5.47
2019-03-05T19:43:06.588Z,4.87
2019-03-05T19:45:35.181Z,2.70
2019-03-05T19:48:03.802Z,7.33
2019-03-05T19:50:32.304Z,3.33
2019-03-05T19:53:00.961Z,3.23
2019-03-05T19:55:30.134Z,2.90
2019-03-05T19:58:14.177Z,4.13
2019-03-05T20:00:47.304Z,2.17
2019-03-05T20:03:15.719Z,2.83
2019-03-05T20:05:44.224Z,1.97
2019-03-05T20:08:12.638Z,1.30
2019-03-05T20:10:41.128Z,1.73
2019-03-05T20:13:09.568Z,1.57
2019-03-05T20:15:38.978Z,443.87
2019-03-05T20:18:07.595Z,298.18
2019-03-05T20:20:36.071Z,264.82
2019-03-05T20:23:05.228Z,178.77
2019-03-05T20:25:33.819Z,135.93
2019-03-05T20:28:02.252Z,94.53
2019-03-05T20:30:30.835Z,72.80
2019-03-05T20:32:59.268Z,56.40
2019-03-05T20:35:27.721Z,47.67
2019-03-05T20:37:56.230Z,39.07
2019-03-05T20:40:27.025Z,27.67
2019-03-05T20:42:55.508Z,27.48
2019-03-05T20:45:29.772Z,28.37
2019-03-05T20:47:58.571Z,26.40
2019-03-05T20:50:27.054Z,26.50
2019-03-05T20:52:55.633Z,27.17
2019-03-05T20:55:25.302Z,28.00
2019-03-05T20:57:53.749Z,25.77
2019-03-05T21:00:30.955Z,26.07
2019-03-05T21:03:04.499Z,24.67
2019-03-05T21:05:35.691Z,25.53
2019-03-05T21:08:04.691Z,26.93
2019-03-05T21:10:33.161Z,24.83
2019-03-05T21:13:02.793Z,26.20
2019-03-05T21:15:33.035Z,22.73
2019-03-05T21:18:02.441Z,23.57
2019-03-05T21:20:30.985Z,22.40
2019-03-05T21:22:59.415Z,23.07
2019-03-05T21:25:27.853Z,22.30
2019-03-05T21:27:56.383Z,23.53
2019-03-05T21:30:28.763Z,23.57
2019-03-05T21:32:57.257Z,23.60
2019-03-05T21:35:25.817Z,21.53
2019-03-05T21:37:54.617Z,23.53
2019-03-05T21:40:27.877Z,22.00
2019-03-05T21:42:56.377Z,22.20
2019-03-05T21:45:43.005Z,20.30
2019-03-05T21:48:11.425Z,19.93
2019-03-05T21:50:39.836Z,20.20
2019-03-05T21:53:08.382Z,20.30
2019-03-05T21:55:36.889Z,20.17
2019-03-05T21:58:05.474Z,20.27
2019-03-05T22:00:39.665Z,21.27
2019-03-05T22:03:08.162Z,20.17
2019-03-05T22:05:36.607Z,20.60
2019-03-05T22:08:05.035Z,20.47
2019-03-05T22:10:33.906Z,19.30
2019-03-05T22:13:02.369Z,18.77
2019-03-05T22:15:32.543Z,18.53
2019-03-05T22:18:00.957Z,18.47
2019-03-05T22:20:29.402Z,17.00
2019-03-05T22:22:58.215Z,18.30
2019-03-05T22:25:28.762Z,18.00
2019-03-05T22:27:56.799Z,18.83
2019-03-05T22:30:33.660Z,17.37
2019-03-05T22:33:02.137Z,18.47
2019-03-05T22:35:30.657Z,16.57
2019-03-05T22:37:59.115Z,17.03
2019-03-05T22:40:28.362Z,17.70
2019-03-05T22:42:57.323Z,15.87
2019-03-05T22:45:33.001Z,17.17
2019-03-05T22:48:01.444Z,14.77
2019-03-05T22:50:29.937Z,17.17
2019-03-05T22:52:58.381Z,15.83
2019-03-05T22:55:26.803Z,16.40
2019-03-05T22:57:55.599Z,15.83
2019-03-05T23:00:37.900Z,16.23
2019-03-05T23:03:09.233Z,16.17
2019-03-05T23:05:37.645Z,14.10
2019-03-05T23:08:06.624Z,15.03
2019-03-05T23:10:35.305Z,15.43
2019-03-05T23:13:04.321Z,15.73
2019-03-05T23:15:33.755Z,15.00
2019-03-05T23:18:02.206Z,14.07
2019-03-05T23:20:31.168Z,14.63
2019-03-05T23:22:59.644Z,14.37
2019-03-05T23:25:28.428Z,13.93
2019-03-05T23:27:57.077Z,14.30
2019-03-05T23:30:25.522Z,12.87
2019-03-05T23:32:54.424Z,12.93
2019-03-05T23:35:22.928Z,14.00
2019-03-05T23:37:51.441Z,13.43
2019-03-05T23:40:20.161Z,12.07
2019-03-05T23:42:48.646Z,13.53
2019-03-05T23:45:18.604Z,13.07
2019-03-05T23:47:47.119Z,12.03
2019-03-05T23:50:16.397Z,13.20
2019-03-05T23:52:45.104Z,12.43
2019-03-05T23:55:14.262Z,13.17
2019-03-05T23:57:42.958Z,11.60
